Strona główna
METAR-TAF:

METAR-TAF

Lotnisko :

Port lotniczy Funafuti

Funafuti, Tuvalu

Szerokość geograficzna: 08-31S, Długość geograficzna: 179-13E, wysokość: 1 m

Aktualna obserwacja pogody

Raport powstał 34 minut temu, godzina 12:00 UTC
Wiatr 10 kt od wschód
Temperatura 29°C
Wilgotność 79%
Ciśnienie 1011 hPa
Widzialność 10 km lub więcej
Mało chmury na wysokości 1700 ft, Cumulusy wypiętrznone.
Rozproszone chmury na wysokości 30000 ft

METAR: NGFU 181200Z 09010KT 9999 FEW017TCU SCT300 29/25 Q1011

czas: 00:34 (12:34 UTC)

Prognoza

Raport powstał 1 godzina i 23 minut temu, godzina 11:11 UTC
Prognoza ważna od 18 godzina 12 UTC do 19 godzina 12 UTC
Wiatr 7 kt od wschodnio-południowy wschód
Widzialność 10 km lub więcej
Rozproszone chmury na wysokości 1800 ft
Przerywane chmury na wysokości 10000 ft
Prawdopodobieństwo 40%
od 18 godzina 12 UTC do 18 godzina 24 UTC
Widzialność: 5000 m
Przerywane chmury na wysokości 1500 ft
przelotny opad deszczu

TAF: NGFU 181111Z 1812/1912 12007KT 9999 SCT018 BKN100 PROB40 1812/1824 5000 SHRA BKN015

Obserwacja i prognoza pogody dla ponad 4000 lotnisk (raport METAR i TAF).

Dostępne stacje oznaczono żółtymi i czerwonymi punktami na mapie.

Najedź kursorem aby zobaczyć nazwę stacji.

Kliknij aby zobaczyć obserwacje i prognozy pogody.

Aby zmienić mapę: kliknij na zielony przycisk z czarnym krzyżykiem, aby powiększyć; na zielony przycisk z myślnikiem, aby pomniejszyć; na zielone strzałki, aby przejść do map sąsiednich.


METAR-TAF: